Terminal Aerodrome Forecast
Issued by NWS Los Angeles, CA

Home | Current Version | Previous Version | Text Only | Print | Product List | Glossary On
Versions: 1 2 3 4 5 6 7 8 9 10 11 12 13 14 15 16 17 18 19
000
FTUS46 KLOX 252300 RRA
TAFSMX
TAF
KSMX 252348Z 2600/2624 31012KT P6SM BKN060
     FM260200 30006KT P6SM SCT120
     FM260400 VRB03KT P6SM SCT150
     FM261600 34008KT P6SM SKC
     FM261800 34015G22KT P6SM SKC
     FM262100 33020G28KT P6SM SKC=

USA.gov is the U.S. government's official web portal to all federal, state and local government web resources and services.